sensor_id;sensor_type;location;lat;lon;timestamp;pressure;altitude;pressure_sealevel;temperature;humidity
50105;BME280;47690;39.202;-77.198;2022-11-20T00:01:07;100339.44;;;29.23;7.03
50105;BME280;47690;39.202;-77.198;2022-11-20T00:04:10;100340.31;;;29.03;7.07
50105;BME280;47690;39.202;-77.198;2022-11-20T00:07:18;100342.00;;;28.95;7.33
50105;BME280;47690;39.202;-77.198;2022-11-20T00:10:23;100334.59;;;28.69;7.30
50105;BME280;47690;39.202;-77.198;2022-11-20T00:13:27;100326.47;;;28.70;7.75
50105;BME280;47690;39.202;-77.198;2022-11-20T00:16:32;100324.00;;;28.59;7.29
50105;BME280;47690;39.202;-77.198;2022-11-20T00:19:54;100320.22;;;28.42;7.64
50105;BME280;47690;39.202;-77.198;2022-11-20T00:23:25;100320.91;;;28.93;7.66
50105;BME280;47690;39.202;-77.198;2022-11-20T00:26:30;100314.50;;;28.86;7.21
50105;BME280;47690;39.202;-77.198;2022-11-20T00:29:34;100320.66;;;28.57;7.76
50105;BME280;47690;39.202;-77.198;2022-11-20T00:32:38;100319.44;;;27.69;7.85
50105;BME280;47690;39.202;-77.198;2022-11-20T00:35:43;100317.03;;;27.97;7.46
50105;BME280;47690;39.202;-77.198;2022-11-20T00:38:58;100309.88;;;28.29;7.53
50105;BME280;47690;39.202;-77.198;2022-11-20T00:42:04;100306.50;;;28.17;7.42
50105;BME280;47690;39.202;-77.198;2022-11-20T00:46:13;100297.44;;;28.09;7.63
50105;BME280;47690;39.202;-77.198;2022-11-20T00:49:19;100317.41;;;28.24;7.75
50105;BME280;47690;39.202;-77.198;2022-11-20T00:52:23;100318.69;;;27.88;8.21
50105;BME280;47690;39.202;-77.198;2022-11-20T00:55:34;100305.59;;;27.97;8.12
50105;BME280;47690;39.202;-77.198;2022-11-20T00:59:04;100314.38;;;27.87;7.76
50105;BME280;47690;39.202;-77.198;2022-11-20T01:02:03;100308.31;;;27.44;8.12
50105;BME280;47690;39.202;-77.198;2022-11-20T01:05:03;100303.84;;;27.45;7.81
50105;BME280;47690;39.202;-77.198;2022-11-20T01:08:12;100304.63;;;27.57;8.31
50105;BME280;47690;39.202;-77.198;2022-11-20T01:11:35;100295.16;;;27.54;8.23
50105;BME280;47690;39.202;-77.198;2022-11-20T01:14:44;100284.81;;;27.51;8.10
50105;BME280;47690;39.202;-77.198;2022-11-20T01:17:51;100281.59;;;27.47;7.77
50105;BME280;47690;39.202;-77.198;2022-11-20T01:21:09;100284.91;;;27.61;7.76
50105;BME280;47690;39.202;-77.198;2022-11-20T01:24:19;100275.28;;;27.38;7.98
50105;BME280;47690;39.202;-77.198;2022-11-20T01:27:35;100267.34;;;27.38;8.13
50105;BME280;47690;39.202;-77.198;2022-11-20T01:35:15;100266.53;;;27.38;7.77
50105;BME280;47690;39.202;-77.198;2022-11-20T01:40:06;100279.59;;;27.61;8.04
50105;BME280;47690;39.202;-77.198;2022-11-20T01:44:17;100281.56;;;27.37;7.93
50105;BME280;47690;39.202;-77.198;2022-11-20T01:47:46;100277.56;;;26.79;8.04
50105;BME280;47690;39.202;-77.198;2022-11-20T01:50:46;100282.19;;;27.20;8.06
50105;BME280;47690;39.202;-77.198;2022-11-20T01:54:00;100274.41;;;28.10;7.63
50105;BME280;47690;39.202;-77.198;2022-11-20T01:57:46;100280.94;;;27.55;8.33
50105;BME280;47690;39.202;-77.198;2022-11-20T02:01:31;100277.03;;;26.97;8.15
50105;BME280;47690;39.202;-77.198;2022-11-20T02:04:39;100281.16;;;27.11;8.26
50105;BME280;47690;39.202;-77.198;2022-11-20T02:07:44;100268.09;;;26.55;8.60
50105;BME280;47690;39.202;-77.198;2022-11-20T02:10:50;100264.84;;;26.30;8.88
50105;BME280;47690;39.202;-77.198;2022-11-20T02:13:54;100266.41;;;26.22;8.55
50105;BME280;47690;39.202;-77.198;2022-11-20T02:17:00;100280.31;;;26.24;8.64
50105;BME280;47690;39.202;-77.198;2022-11-20T02:20:11;100287.88;;;26.17;8.81
50105;BME280;47690;39.202;-77.198;2022-11-20T02:27:23;100266.03;;;26.26;8.78
50105;BME280;47690;39.202;-77.198;2022-11-20T02:30:25;100259.44;;;26.09;8.67
50105;BME280;47690;39.202;-77.198;2022-11-20T02:33:23;100265.25;;;26.03;8.76
50105;BME280;47690;39.202;-77.198;2022-11-20T02:36:28;100246.03;;;26.01;8.81
50105;BME280;47690;39.202;-77.198;2022-11-20T02:39:45;100250.13;;;26.05;8.76
50105;BME280;47690;39.202;-77.198;2022-11-20T02:43:18;100246.03;;;26.01;8.79
50105;BME280;47690;39.202;-77.198;2022-11-20T02:46:59;100252.28;;;26.00;8.83
50105;BME280;47690;39.202;-77.198;2022-11-20T02:50:07;100254.00;;;25.78;8.78
50105;BME280;47690;39.202;-77.198;2022-11-20T02:53:17;100258.09;;;25.71;8.91
50105;BME280;47690;39.202;-77.198;2022-11-20T02:56:31;100250.88;;;25.84;8.89
50105;BME280;47690;39.202;-77.198;2022-11-20T03:00:14;100254.91;;;26.00;8.96
50105;BME280;47690;39.202;-77.198;2022-11-20T03:32:42;100217.28;;;25.98;8.90
50105;BME280;47690;39.202;-77.198;2022-11-20T03:42:12;100222.22;;;25.91;8.96
50105;BME280;47690;39.202;-77.198;2022-11-20T03:47:33;100208.53;;;25.86;8.85
50105;BME280;47690;39.202;-77.198;2022-11-20T03:53:18;100214.88;;;26.81;8.63
50105;BME280;47690;39.202;-77.198;2022-11-20T03:58:11;100214.88;;;26.39;8.16
50105;BME280;47690;39.202;-77.198;2022-11-20T04:03:20;100202.91;;;25.90;8.77
50105;BME280;47690;39.202;-77.198;2022-11-20T04:07:39;100202.13;;;25.56;8.87
50105;BME280;47690;39.202;-77.198;2022-11-20T04:10:51;100210.16;;;25.31;9.04
50105;BME280;47690;39.202;-77.198;2022-11-20T04:14:04;100204.75;;;25.21;9.07
50105;BME280;47690;39.202;-77.198;2022-11-20T04:17:12;100199.72;;;25.07;9.00
50105;BME280;47690;39.202;-77.198;2022-11-20T04:20:32;100204.13;;;24.95;9.50
50105;BME280;47690;39.202;-77.198;2022-11-20T04:24:32;100198.53;;;25.11;9.30
50105;BME280;47690;39.202;-77.198;2022-11-20T04:27:34;100192.03;;;24.92;9.39
50105;BME280;47690;39.202;-77.198;2022-11-20T04:30:48;100182.00;;;25.20;9.00
50105;BME280;47690;39.202;-77.198;2022-11-20T04:34:15;100197.78;;;24.98;9.05
50105;BME280;47690;39.202;-77.198;2022-11-20T04:37:24;100201.41;;;25.54;9.27
50105;BME280;47690;39.202;-77.198;2022-11-20T04:41:16;100185.69;;;25.63;9.01
50105;BME280;47690;39.202;-77.198;2022-11-20T04:44:43;100179.91;;;25.70;8.68
50105;BME280;47690;39.202;-77.198;2022-11-20T04:47:55;100188.09;;;25.55;8.80
50105;BME280;47690;39.202;-77.198;2022-11-20T04:51:15;100179.53;;;25.74;8.85
50105;BME280;47690;39.202;-77.198;2022-11-20T04:55:04;100178.47;;;25.77;8.67
50105;BME280;47690;39.202;-77.198;2022-11-20T04:58:16;100176.47;;;25.69;8.68
50105;BME280;47690;39.202;-77.198;2022-11-20T05:02:07;100171.50;;;25.76;8.84
50105;BME280;47690;39.202;-77.198;2022-11-20T05:06:01;100162.59;;;25.33;9.01
50105;BME280;47690;39.202;-77.198;2022-11-20T05:10:03;100168.78;;;25.66;8.99
50105;BME280;47690;39.202;-77.198;2022-11-20T05:15:19;100169.63;;;25.44;9.05
50105;BME280;47690;39.202;-77.198;2022-11-20T05:49:22;100209.88;;;25.34;8.97
50105;BME280;47690;39.202;-77.198;2022-11-20T05:54:34;100222.81;;;24.56;9.51
50105;BME280;47690;39.202;-77.198;2022-11-20T06:10:15;100243.16;;;24.30;9.64
50105;BME280;47690;39.202;-77.198;2022-11-20T06:15:40;100261.66;;;24.17;9.92
50105;BME280;47690;39.202;-77.198;2022-11-20T06:20:42;100257.00;;;24.20;9.44
50105;BME280;47690;39.202;-77.198;2022-11-20T06:25:48;100261.56;;;24.78;9.37
50105;BME280;47690;39.202;-77.198;2022-11-20T06:47:27;100303.63;;;24.91;9.25
50105;BME280;47690;39.202;-77.198;2022-11-20T06:51:59;100309.16;;;25.00;9.30
50105;BME280;47690;39.202;-77.198;2022-11-20T07:02:53;100323.13;;;25.25;8.93
50105;BME280;47690;39.202;-77.198;2022-11-20T07:13:28;100315.75;;;25.53;8.96
50105;BME280;47690;39.202;-77.198;2022-11-20T07:18:07;100317.81;;;25.60;8.86
50105;BME280;47690;39.202;-77.198;2022-11-20T07:28:50;100314.53;;;26.02;8.42
50105;BME280;47690;39.202;-77.198;2022-11-20T07:33:28;100328.59;;;26.03;8.30
50105;BME280;47690;39.202;-77.198;2022-11-20T07:38:19;100341.63;;;26.16;8.29
50105;BME280;47690;39.202;-77.198;2022-11-20T07:43:16;100349.44;;;26.29;8.33
50105;BME280;47690;39.202;-77.198;2022-11-20T07:52:26;100352.59;;;26.55;8.24
50105;BME280;47690;39.202;-77.198;2022-11-20T08:01:37;100360.00;;;26.73;7.93
50105;BME280;47690;39.202;-77.198;2022-11-20T08:06:56;100372.69;;;26.79;7.83
50105;BME280;47690;39.202;-77.198;2022-11-20T08:12:44;100387.47;;;26.82;7.76
50105;BME280;47690;39.202;-77.198;2022-11-20T08:18:12;100374.97;;;26.84;7.75
50105;BME280;47690;39.202;-77.198;2022-11-20T08:25:29;100390.28;;;26.69;7.77
50105;BME280;47690;39.202;-77.198;2022-11-20T08:36:15;100399.75;;;27.89;7.18
50105;BME280;47690;39.202;-77.198;2022-11-20T08:40:10;100394.16;;;27.83;7.17
50105;BME280;47690;39.202;-77.198;2022-11-20T08:43:35;100392.75;;;27.78;7.35
50105;BME280;47690;39.202;-77.198;2022-11-20T08:46:48;100401.75;;;27.66;7.25
50105;BME280;47690;39.202;-77.198;2022-11-20T08:49:52;100393.97;;;27.53;7.07
50105;BME280;47690;39.202;-77.198;2022-11-20T08:53:04;100403.91;;;26.85;7.45
50105;BME280;47690;39.202;-77.198;2022-11-20T08:56:11;100398.28;;;26.79;7.32
50105;BME280;47690;39.202;-77.198;2022-11-20T08:59:15;100393.50;;;26.72;7.74
50105;BME280;47690;39.202;-77.198;2022-11-20T09:02:40;100400.50;;;27.27;7.61
50105;BME280;47690;39.202;-77.198;2022-11-20T09:05:48;100401.03;;;27.64;7.29
50105;BME280;47690;39.202;-77.198;2022-11-20T09:08:57;100400.50;;;27.70;7.21
50105;BME280;47690;39.202;-77.198;2022-11-20T09:12:07;100396.06;;;27.71;7.07
50105;BME280;47690;39.202;-77.198;2022-11-20T09:15:14;100407.63;;;27.70;6.72
50105;BME280;47690;39.202;-77.198;2022-11-20T09:18:24;100407.75;;;27.68;6.71
50105;BME280;47690;39.202;-77.198;2022-11-20T09:22:11;100407.47;;;27.71;7.10
50105;BME280;47690;39.202;-77.198;2022-11-20T09:25:24;100407.88;;;27.66;6.93
50105;BME280;47690;39.202;-77.198;2022-11-20T09:28:36;100407.06;;;27.54;6.97
50105;BME280;47690;39.202;-77.198;2022-11-20T09:31:46;100408.75;;;27.55;7.08
50105;BME280;47690;39.202;-77.198;2022-11-20T09:34:58;100410.78;;;27.63;7.02
50105;BME280;47690;39.202;-77.198;2022-11-20T09:38:29;100409.13;;;27.62;6.63
50105;BME280;47690;39.202;-77.198;2022-11-20T09:49:03;100438.75;;;27.45;6.43
50105;BME280;47690;39.202;-77.198;2022-11-20T09:56:03;100438.75;;;27.45;6.58
50105;BME280;47690;39.202;-77.198;2022-11-20T09:59:46;100444.81;;;27.35;6.87
50105;BME280;47690;39.202;-77.198;2022-11-20T10:03:24;100447.88;;;27.19;6.67
50105;BME280;47690;39.202;-77.198;2022-11-20T10:06:33;100445.31;;;26.52;6.80
50105;BME280;47690;39.202;-77.198;2022-11-20T10:10:14;100452.13;;;26.21;7.17
50105;BME280;47690;39.202;-77.198;2022-11-20T10:13:46;100463.53;;;26.10;7.38
50105;BME280;47690;39.202;-77.198;2022-11-20T10:20:28;100458.97;;;26.12;7.31
50105;BME280;47690;39.202;-77.198;2022-11-20T10:27:44;100480.63;;;26.28;7.23
50105;BME280;47690;39.202;-77.198;2022-11-20T10:31:09;100488.06;;;26.23;7.35
50105;BME280;47690;39.202;-77.198;2022-11-20T11:08:53;100551.81;;;26.05;7.15
50105;BME280;47690;39.202;-77.198;2022-11-20T11:19:27;100606.84;;;25.87;6.95
50105;BME280;47690;39.202;-77.198;2022-11-20T11:24:15;100602.81;;;25.70;7.35
50105;BME280;47690;39.202;-77.198;2022-11-20T11:35:04;100632.00;;;25.80;7.36
50105;BME280;47690;39.202;-77.198;2022-11-20T11:38:07;100632.47;;;25.74;7.35
50105;BME280;47690;39.202;-77.198;2022-11-20T11:41:26;100645.19;;;25.56;7.39
50105;BME280;47690;39.202;-77.198;2022-11-20T11:44:51;100647.50;;;25.47;7.73
50105;BME280;47690;39.202;-77.198;2022-11-20T11:48:03;100662.06;;;25.53;7.43
50105;BME280;47690;39.202;-77.198;2022-11-20T11:51:08;100674.19;;;25.56;7.54
50105;BME280;47690;39.202;-77.198;2022-11-20T11:54:30;100692.53;;;25.57;7.62
50105;BME280;47690;39.202;-77.198;2022-11-20T12:02:23;100694.47;;;25.42;7.26
50105;BME280;47690;39.202;-77.198;2022-11-20T12:05:59;100704.75;;;25.21;7.67
50105;BME280;47690;39.202;-77.198;2022-11-20T12:09:15;100726.66;;;25.08;7.33
50105;BME280;47690;39.202;-77.198;2022-11-20T12:14:08;100740.66;;;25.09;7.35
50105;BME280;47690;39.202;-77.198;2022-11-20T12:17:01;100734.34;;;24.99;7.63
50105;BME280;47690;39.202;-77.198;2022-11-20T12:20:35;100749.84;;;24.90;7.08
50105;BME280;47690;39.202;-77.198;2022-11-20T12:24:24;100766.94;;;25.10;6.99
50105;BME280;47690;39.202;-77.198;2022-11-20T12:28:32;100762.69;;;24.82;7.09
50105;BME280;47690;39.202;-77.198;2022-11-20T12:39:42;100807.84;;;24.63;7.27
50105;BME280;47690;39.202;-77.198;2022-11-20T12:46:55;100856.72;;;25.74;6.68
50105;BME280;47690;39.202;-77.198;2022-11-20T12:53:44;100891.69;;;24.69;6.93
50105;BME280;47690;39.202;-77.198;2022-11-20T13:00:19;100896.22;;;24.67;7.07
50105;BME280;47690;39.202;-77.198;2022-11-20T13:03:51;100892.28;;;24.60;6.92
50105;BME280;47690;39.202;-77.198;2022-11-20T13:07:14;100912.19;;;24.51;6.82
50105;BME280;47690;39.202;-77.198;2022-11-20T13:20:19;100933.97;;;23.66;7.13
50105;BME280;47690;39.202;-77.198;2022-11-20T13:23:28;100947.31;;;23.63;7.50
50105;BME280;47690;39.202;-77.198;2022-11-20T13:26:34;100947.59;;;23.72;7.48
50105;BME280;47690;39.202;-77.198;2022-11-20T13:30:16;100961.13;;;23.95;6.85
50105;BME280;47690;39.202;-77.198;2022-11-20T13:33:23;100959.16;;;23.99;7.29
50105;BME280;47690;39.202;-77.198;2022-11-20T13:36:35;100955.88;;;24.53;6.79
50105;BME280;47690;39.202;-77.198;2022-11-20T13:39:43;100966.91;;;24.02;7.18
50105;BME280;47690;39.202;-77.198;2022-11-20T13:46:11;100969.56;;;24.17;7.07
50105;BME280;47690;39.202;-77.198;2022-11-20T13:49:26;100991.34;;;24.48;6.58
50105;BME280;47690;39.202;-77.198;2022-11-20T13:56:09;101004.03;;;24.85;6.87
50105;BME280;47690;39.202;-77.198;2022-11-20T14:00:03;100995.34;;;24.97;6.69
50105;BME280;47690;39.202;-77.198;2022-11-20T14:03:52;101002.84;;;25.71;6.40
50105;BME280;47690;39.202;-77.198;2022-11-20T14:07:01;101002.44;;;25.09;6.55
50105;BME280;47690;39.202;-77.198;2022-11-20T14:10:25;101016.59;;;25.08;6.73
50105;BME280;47690;39.202;-77.198;2022-11-20T14:13:37;101011.50;;;25.05;6.36
50105;BME280;47690;39.202;-77.198;2022-11-20T14:17:07;101021.06;;;25.21;6.66
50105;BME280;47690;39.202;-77.198;2022-11-20T14:20:13;101029.75;;;25.36;6.75
50105;BME280;47690;39.202;-77.198;2022-11-20T14:23:48;101012.00;;;25.53;6.39
50105;BME280;47690;39.202;-77.198;2022-11-20T14:26:58;101017.94;;;25.42;6.64
50105;BME280;47690;39.202;-77.198;2022-11-20T14:30:16;101023.22;;;25.42;6.38
50105;BME280;47690;39.202;-77.198;2022-11-20T14:33:35;101020.88;;;25.37;6.41
50105;BME280;47690;39.202;-77.198;2022-11-20T14:36:44;101023.31;;;25.13;6.61
50105;BME280;47690;39.202;-77.198;2022-11-20T14:39:56;101031.28;;;24.98;6.73
50105;BME280;47690;39.202;-77.198;2022-11-20T14:43:23;101048.81;;;24.99;6.33
50105;BME280;47690;39.202;-77.198;2022-11-20T14:46:41;101048.25;;;24.94;6.41
50105;BME280;47690;39.202;-77.198;2022-11-20T14:50:27;101041.72;;;25.00;6.38
50105;BME280;47690;39.202;-77.198;2022-11-20T14:53:31;101024.44;;;24.95;6.54
50105;BME280;47690;39.202;-77.198;2022-11-20T14:56:40;101031.44;;;24.82;6.44
50105;BME280;47690;39.202;-77.198;2022-11-20T14:59:51;101033.94;;;24.69;6.76
50105;BME280;47690;39.202;-77.198;2022-11-20T15:03:30;101038.09;;;24.88;6.53
50105;BME280;47690;39.202;-77.198;2022-11-20T15:06:54;101041.25;;;25.07;6.53
50105;BME280;47690;39.202;-77.198;2022-11-20T15:10:07;101055.50;;;25.45;6.64
50105;BME280;47690;39.202;-77.198;2022-11-20T15:13:38;101043.94;;;25.88;6.31
50105;BME280;47690;39.202;-77.198;2022-11-20T15:16:52;101051.63;;;25.78;6.12
50105;BME280;47690;39.202;-77.198;2022-11-20T15:20:14;101056.91;;;25.91;6.06
50105;BME280;47690;39.202;-77.198;2022-11-20T15:24:01;101046.84;;;26.24;6.00
50105;BME280;47690;39.202;-77.198;2022-11-20T15:27:10;101037.84;;;26.40;6.45
50105;BME280;47690;39.202;-77.198;2022-11-20T15:30:19;101039.69;;;26.64;5.91
50105;BME280;47690;39.202;-77.198;2022-11-20T15:33:24;101046.91;;;26.62;6.06
50105;BME280;47690;39.202;-77.198;2022-11-20T15:36:47;101037.47;;;26.70;6.05
50105;BME280;47690;39.202;-77.198;2022-11-20T15:39:51;101045.91;;;26.89;6.00
50105;BME280;47690;39.202;-77.198;2022-11-20T15:42:54;101047.28;;;26.81;5.84
50105;BME280;47690;39.202;-77.198;2022-11-20T15:46:29;101052.00;;;26.89;5.98
50105;BME280;47690;39.202;-77.198;2022-11-20T15:49:31;101051.69;;;26.94;5.95
50105;BME280;47690;39.202;-77.198;2022-11-20T15:52:28;101061.00;;;26.86;5.99
50105;BME280;47690;39.202;-77.198;2022-11-20T15:55:38;101064.31;;;27.14;5.87
50105;BME280;47690;39.202;-77.198;2022-11-20T15:58:48;101067.53;;;27.55;6.05
50105;BME280;47690;39.202;-77.198;2022-11-20T16:02:01;101050.25;;;28.10;5.93
50105;BME280;47690;39.202;-77.198;2022-11-20T16:05:16;101053.19;;;28.53;5.91
50105;BME280;47690;39.202;-77.198;2022-11-20T16:08:24;101036.66;;;28.60;5.35
50105;BME280;47690;39.202;-77.198;2022-11-20T16:11:33;101059.34;;;28.42;5.35
50105;BME280;47690;39.202;-77.198;2022-11-20T16:14:38;101039.41;;;28.02;5.84
50105;BME280;47690;39.202;-77.198;2022-11-20T16:18:04;101041.75;;;27.71;5.74
50105;BME280;47690;39.202;-77.198;2022-11-20T16:21:11;101038.22;;;27.59;5.34
50105;BME280;47690;39.202;-77.198;2022-11-20T16:24:19;101026.78;;;27.58;5.36
50105;BME280;47690;39.202;-77.198;2022-11-20T16:27:26;101025.53;;;27.75;5.79
50105;BME280;47690;39.202;-77.198;2022-11-20T16:30:32;101017.69;;;27.74;5.40
50105;BME280;47690;39.202;-77.198;2022-11-20T16:33:37;101004.03;;;28.60;5.62
50105;BME280;47690;39.202;-77.198;2022-11-20T16:36:43;100998.06;;;29.77;5.39
50105;BME280;47690;39.202;-77.198;2022-11-20T16:39:47;100987.03;;;30.44;5.22
50105;BME280;47690;39.202;-77.198;2022-11-20T16:42:56;100982.13;;;30.90;5.10
50105;BME280;47690;39.202;-77.198;2022-11-20T16:46:03;101003.69;;;30.97;4.72
50105;BME280;47690;39.202;-77.198;2022-11-20T16:49:11;100986.06;;;31.26;5.03
50105;BME280;47690;39.202;-77.198;2022-11-20T16:52:16;100988.84;;;32.01;4.77
50105;BME280;47690;39.202;-77.198;2022-11-20T16:55:20;100981.19;;;32.91;4.93
50105;BME280;47690;39.202;-77.198;2022-11-20T16:58:56;100980.06;;;33.30;4.43
50105;BME280;47690;39.202;-77.198;2022-11-20T17:02:00;100963.25;;;33.56;4.67
50105;BME280;47690;39.202;-77.198;2022-11-20T17:05:03;100960.06;;;33.87;4.17
50105;BME280;47690;39.202;-77.198;2022-11-20T17:08:08;100961.53;;;33.10;3.94
50105;BME280;47690;39.202;-77.198;2022-11-20T17:11:40;100943.69;;;32.00;3.93
50105;BME280;47690;39.202;-77.198;2022-11-20T17:14:46;100938.19;;;30.86;4.38
50105;BME280;47690;39.202;-77.198;2022-11-20T17:17:51;100936.66;;;30.23;4.58
50105;BME280;47690;39.202;-77.198;2022-11-20T17:20:56;100932.81;;;30.57;4.83
50105;BME280;47690;39.202;-77.198;2022-11-20T17:24:06;100926.41;;;30.99;4.50
50105;BME280;47690;39.202;-77.198;2022-11-20T17:27:20;100938.19;;;30.86;4.67
50105;BME280;47690;39.202;-77.198;2022-11-20T17:30:38;100937.81;;;30.40;4.88
50105;BME280;47690;39.202;-77.198;2022-11-20T17:33:47;100930.41;;;30.03;5.05
50105;BME280;47690;39.202;-77.198;2022-11-20T17:37:04;100928.59;;;30.64;4.84
50105;BME280;47690;39.202;-77.198;2022-11-20T17:40:12;100933.59;;;29.65;5.03
50105;BME280;47690;39.202;-77.198;2022-11-20T17:43:28;100923.28;;;29.29;5.00
50105;BME280;47690;39.202;-77.198;2022-11-20T17:46:39;100927.34;;;28.91;5.12
50105;BME280;47690;39.202;-77.198;2022-11-20T17:50:19;100937.88;;;29.35;4.59
50105;BME280;47690;39.202;-77.198;2022-11-20T17:53:23;100928.88;;;29.26;5.02
50105;BME280;47690;39.202;-77.198;2022-11-20T17:56:39;100937.59;;;29.60;4.82
50105;BME280;47690;39.202;-77.198;2022-11-20T18:00:24;100937.56;;;30.53;4.45
50105;BME280;47690;39.202;-77.198;2022-11-20T18:04:24;100946.56;;;30.91;4.14
50105;BME280;47690;39.202;-77.198;2022-11-20T18:08:00;100928.03;;;31.49;3.95
50105;BME280;47690;39.202;-77.198;2022-11-20T18:31:59;100948.69;;;29.65;4.42
50105;BME280;47690;39.202;-77.198;2022-11-20T18:36:19;100949.63;;;28.44;5.17
50105;BME280;47690;39.202;-77.198;2022-11-20T18:40:47;100962.66;;;28.36;4.88
50105;BME280;47690;39.202;-77.198;2022-11-20T18:44:21;100965.38;;;28.00;4.61
50105;BME280;47690;39.202;-77.198;2022-11-20T18:47:44;100969.84;;;27.77;4.81
50105;BME280;47690;39.202;-77.198;2022-11-20T18:51:32;100991.22;;;27.38;4.85
50105;BME280;47690;39.202;-77.198;2022-11-20T18:55:12;100974.09;;;27.55;5.15
50105;BME280;47690;39.202;-77.198;2022-11-20T18:58:16;100983.38;;;27.61;5.24
50105;BME280;47690;39.202;-77.198;2022-11-20T19:01:40;100989.94;;;27.19;5.35
50105;BME280;47690;39.202;-77.198;2022-11-20T19:05:10;100989.72;;;27.22;4.98
50105;BME280;47690;39.202;-77.198;2022-11-20T19:09:03;100996.53;;;27.13;4.91
50105;BME280;47690;39.202;-77.198;2022-11-20T19:12:12;100992.16;;;26.88;5.26
50105;BME280;47690;39.202;-77.198;2022-11-20T19:15:44;100985.19;;;27.00;5.24
50105;BME280;47690;39.202;-77.198;2022-11-20T19:19:22;100986.16;;;27.35;4.86
50105;BME280;47690;39.202;-77.198;2022-11-20T19:29:32;101000.66;;;28.12;5.35
50105;BME280;47690;39.202;-77.198;2022-11-20T19:34:26;101003.88;;;27.93;5.18
50105;BME280;47690;39.202;-77.198;2022-11-20T19:39:01;100999.75;;;27.66;5.29
50105;BME280;47690;39.202;-77.198;2022-11-20T19:42:40;101001.59;;;27.77;4.96
50105;BME280;47690;39.202;-77.198;2022-11-20T19:47:11;100992.75;;;27.29;5.28
50105;BME280;47690;39.202;-77.198;2022-11-20T19:51:43;101002.72;;;27.01;5.21
50105;BME280;47690;39.202;-77.198;2022-11-20T20:00:40;100998.75;;;26.82;5.38
50105;BME280;47690;39.202;-77.198;2022-11-20T20:03:49;101006.69;;;27.31;4.83
50105;BME280;47690;39.202;-77.198;2022-11-20T20:30:14;101031.75;;;28.33;4.16
50105;BME280;47690;39.202;-77.198;2022-11-20T20:40:36;101042.16;;;27.04;5.11
50105;BME280;47690;39.202;-77.198;2022-11-20T20:43:57;101037.44;;;26.83;5.02
50105;BME280;47690;39.202;-77.198;2022-11-20T20:47:30;101039.84;;;26.86;5.17
50105;BME280;47690;39.202;-77.198;2022-11-20T20:50:53;101046.66;;;26.91;5.09
50105;BME280;47690;39.202;-77.198;2022-11-20T20:54:07;101048.22;;;26.93;5.18
50105;BME280;47690;39.202;-77.198;2022-11-20T20:57:24;101050.31;;;26.88;5.24
50105;BME280;47690;39.202;-77.198;2022-11-20T21:01:09;101062.91;;;26.97;4.78
50105;BME280;47690;39.202;-77.198;2022-11-20T21:04:52;101067.25;;;26.85;5.25
50105;BME280;47690;39.202;-77.198;2022-11-20T21:07:56;101065.59;;;26.71;5.24
50105;BME280;47690;39.202;-77.198;2022-11-20T21:11:19;101067.72;;;26.53;5.07
50105;BME280;47690;39.202;-77.198;2022-11-20T21:14:24;101056.56;;;26.37;5.32
50105;BME280;47690;39.202;-77.198;2022-11-20T21:17:55;101067.94;;;26.37;5.19
50105;BME280;47690;39.202;-77.198;2022-11-20T21:28:25;101078.16;;;26.16;5.26
50105;BME280;47690;39.202;-77.198;2022-11-20T21:32:20;101083.44;;;26.81;4.87
50105;BME280;47690;39.202;-77.198;2022-11-20T21:36:52;101092.34;;;26.41;4.77
50105;BME280;47690;39.202;-77.198;2022-11-20T21:40:19;101095.84;;;26.28;5.27
50105;BME280;47690;39.202;-77.198;2022-11-20T21:43:32;101104.34;;;26.19;5.29
50105;BME280;47690;39.202;-77.198;2022-11-20T21:46:39;101101.84;;;26.17;5.01
50105;BME280;47690;39.202;-77.198;2022-11-20T21:49:39;101113.13;;;26.07;5.27
50105;BME280;47690;39.202;-77.198;2022-11-20T21:53:07;101115.53;;;26.10;5.50
50105;BME280;47690;39.202;-77.198;2022-11-20T21:56:05;101107.63;;;25.97;5.38
50105;BME280;47690;39.202;-77.198;2022-11-20T21:59:12;101110.75;;;26.02;5.38
50105;BME280;47690;39.202;-77.198;2022-11-20T22:02:27;101109.06;;;26.01;5.47
50105;BME280;47690;39.202;-77.198;2022-11-20T22:05:40;101124.16;;;26.52;5.08
50105;BME280;47690;39.202;-77.198;2022-11-20T22:08:48;101125.03;;;25.99;5.33
50105;BME280;47690;39.202;-77.198;2022-11-20T22:12:35;101130.69;;;26.34;5.15
50105;BME280;47690;39.202;-77.198;2022-11-20T22:15:52;101129.31;;;26.41;5.44
50105;BME280;47690;39.202;-77.198;2022-11-20T22:28:40;101154.59;;;26.04;5.01
50105;BME280;47690;39.202;-77.198;2022-11-20T22:36:48;101177.53;;;25.76;5.68
50105;BME280;47690;39.202;-77.198;2022-11-20T22:39:58;101178.88;;;25.69;5.46
50105;BME280;47690;39.202;-77.198;2022-11-20T22:43:13;101184.91;;;25.71;5.34
50105;BME280;47690;39.202;-77.198;2022-11-20T22:46:34;101189.97;;;25.74;5.25
50105;BME280;47690;39.202;-77.198;2022-11-20T22:49:44;101196.50;;;25.69;5.51
50105;BME280;47690;39.202;-77.198;2022-11-20T22:52:52;101217.25;;;25.60;5.77
50105;BME280;47690;39.202;-77.198;2022-11-20T22:56:41;101210.00;;;25.64;5.19
50105;BME280;47690;39.202;-77.198;2022-11-20T23:04:09;101243.41;;;25.49;5.86
50105;BME280;47690;39.202;-77.198;2022-11-20T23:07:08;101246.72;;;25.38;5.68
50105;BME280;47690;39.202;-77.198;2022-11-20T23:10:20;101249.47;;;25.36;5.57
50105;BME280;47690;39.202;-77.198;2022-11-20T23:13:39;101259.63;;;25.28;5.55
50105;BME280;47690;39.202;-77.198;2022-11-20T23:31:59;101273.47;;;25.32;5.90
50105;BME280;47690;39.202;-77.198;2022-11-20T23:35:10;101273.19;;;25.07;5.76
50105;BME280;47690;39.202;-77.198;2022-11-20T23:38:16;101280.88;;;24.96;5.82
50105;BME280;47690;39.202;-77.198;2022-11-20T23:41:24;101279.75;;;24.86;5.96
50105;BME280;47690;39.202;-77.198;2022-11-20T23:44:32;101286.38;;;24.77;5.87
50105;BME280;47690;39.202;-77.198;2022-11-20T23:47:46;101283.81;;;24.75;5.95
50105;BME280;47690;39.202;-77.198;2022-11-20T23:50:57;101296.06;;;24.76;5.74
